createdAt,value
2022-12-06T00:00:43.623Z,16.03
2022-12-06T00:03:32.302Z,13.60
2022-12-06T00:06:23.204Z,14.20
2022-12-06T00:09:24.126Z,17.53
2022-12-06T00:12:17.136Z,15.23
2022-12-06T00:15:12.004Z,12.80
2022-12-06T00:18:00.553Z,13.50
2022-12-06T00:21:00.912Z,16.50
2022-12-06T00:23:51.824Z,16.60
2022-12-06T00:26:47.611Z,14.80
2022-12-06T00:29:43.387Z,14.37
2022-12-06T00:32:36.459Z,16.70
2022-12-06T00:35:28.651Z,18.33
2022-12-06T00:38:17.302Z,14.40
2022-12-06T00:41:09.688Z,14.80
2022-12-06T00:44:03.645Z,14.63
2022-12-06T00:46:52.346Z,12.17
2022-12-06T00:49:44.103Z,16.23
2022-12-06T00:52:40.101Z,15.17
2022-12-06T00:55:28.635Z,15.50
2022-12-06T00:58:20.330Z,16.17
2022-12-06T01:01:09.568Z,13.07
2022-12-06T01:04:01.602Z,14.40
2022-12-06T01:06:51.094Z,14.03
2022-12-06T01:09:39.687Z,15.67
2022-12-06T01:12:30.948Z,14.10
2022-12-06T01:15:22.303Z,13.30
2022-12-06T01:18:18.506Z,13.30
2022-12-06T01:21:07.214Z,12.30
2022-12-06T01:24:00.041Z,12.70
2022-12-06T01:26:50.923Z,11.87
2022-12-06T01:29:39.663Z,13.40
2022-12-06T01:32:30.203Z,12.33
2022-12-06T01:35:21.062Z,13.03
2022-12-06T01:38:12.090Z,12.60
2022-12-06T01:41:04.616Z,12.57
2022-12-06T01:44:00.278Z,10.40
2022-12-06T01:47:00.884Z,13.70
2022-12-06T01:49:53.173Z,10.93
2022-12-06T01:52:46.366Z,11.57
2022-12-06T01:55:40.390Z,12.10
2022-12-06T01:58:33.203Z,13.30
2022-12-06T02:01:21.838Z,12.00
2022-12-06T02:04:10.663Z,10.53
2022-12-06T02:07:01.200Z,12.17
2022-12-06T02:09:59.550Z,9.37
2022-12-06T02:12:56.658Z,10.03
2022-12-06T02:15:50.267Z,8.37
2022-12-06T02:18:44.055Z,10.33
2022-12-06T02:21:38.630Z,7.40
2022-12-06T02:24:41.470Z,8.07
2022-12-06T02:27:48.976Z,8.20
2022-12-06T02:30:44.515Z,7.23
2022-12-06T02:33:41.164Z,8.17
2022-12-06T02:36:32.687Z,7.43
2022-12-06T02:39:25.124Z,8.27
2022-12-06T02:42:20.047Z,7.53
2022-12-06T02:45:12.889Z,5.67
2022-12-06T02:48:06.001Z,5.50
2022-12-06T02:51:03.661Z,5.37
2022-12-06T02:53:58.516Z,5.17
2022-12-06T02:56:53.592Z,4.53
2022-12-06T02:59:51.797Z,5.60
2022-12-06T03:02:43.329Z,3.73
2022-12-06T03:05:39.537Z,3.30
2022-12-06T03:08:33.769Z,3.57
2022-12-06T03:11:23.067Z,4.20
2022-12-06T03:14:14.987Z,3.47
2022-12-06T03:17:11.815Z,3.30
2022-12-06T03:20:04.916Z,2.93
2022-12-06T03:23:02.280Z,4.00
2022-12-06T03:25:53.156Z,3.13
2022-12-06T03:28:45.126Z,3.20
2022-12-06T03:31:38.475Z,3.90
2022-12-06T03:34:34.844Z,3.40
2022-12-06T03:37:30.768Z,3.90
2022-12-06T03:40:22.536Z,3.10
2022-12-06T03:43:14.631Z,4.40
2022-12-06T03:46:07.642Z,3.00
2022-12-06T03:48:57.534Z,3.53
2022-12-06T03:51:46.463Z,3.20
2022-12-06T03:54:37.489Z,2.77
2022-12-06T03:57:27.522Z,3.50
2022-12-06T04:00:19.722Z,3.57
2022-12-06T04:03:09.069Z,3.00
2022-12-06T04:05:59.094Z,3.87
2022-12-06T04:08:47.681Z,3.57
2022-12-06T04:11:37.423Z,4.20
2022-12-06T04:14:39.200Z,3.83
2022-12-06T04:17:45.392Z,3.50
2022-12-06T04:20:54.558Z,4.30
2022-12-06T04:23:42.772Z,4.33
2022-12-06T04:26:31.316Z,4.20
2022-12-06T04:29:39.591Z,4.00
2022-12-06T04:32:47.075Z,3.97
2022-12-06T04:35:53.140Z,4.57
2022-12-06T04:38:46.139Z,3.30
2022-12-06T04:41:53.855Z,6.70
2022-12-06T04:44:47.171Z,4.50
2022-12-06T04:47:40.544Z,4.00
2022-12-06T04:50:30.248Z,4.13
2022-12-06T04:53:23.869Z,3.50
2022-12-06T04:56:12.467Z,4.80
2022-12-06T04:59:04.119Z,3.97
2022-12-06T05:01:53.998Z,4.07
2022-12-06T05:04:46.520Z,4.40
2022-12-06T05:07:38.258Z,3.67
2022-12-06T05:10:26.929Z,3.40
2022-12-06T05:13:17.859Z,3.90
2022-12-06T05:16:12.317Z,4.87
2022-12-06T05:19:00.958Z,4.87
2022-12-06T05:21:52.225Z,4.20
2022-12-06T05:24:40.932Z,5.77
2022-12-06T05:27:35.834Z,5.77
2022-12-06T05:30:26.457Z,4.93
2022-12-06T05:33:15.023Z,4.57
2022-12-06T05:36:07.816Z,6.27
2022-12-06T05:39:01.135Z,5.30
2022-12-06T05:41:51.634Z,4.83
2022-12-06T05:44:45.887Z,4.93
2022-12-06T05:47:35.984Z,4.93
2022-12-06T05:50:29.832Z,4.33
2022-12-06T05:53:19.101Z,5.00
2022-12-06T05:56:11.003Z,4.70
2022-12-06T05:58:59.561Z,4.73
2022-12-06T06:01:50.237Z,3.40
2022-12-06T06:04:38.865Z,4.50
2022-12-06T06:07:27.478Z,3.90
2022-12-06T06:10:19.312Z,3.30
2022-12-06T06:13:12.795Z,3.33
2022-12-06T06:16:02.600Z,3.30
2022-12-06T06:18:53.713Z,4.17
2022-12-06T06:21:44.110Z,3.10
2022-12-06T06:24:36.423Z,3.43
2022-12-06T06:27:29.262Z,3.33
2022-12-06T06:30:19.350Z,3.03
2022-12-06T06:33:15.265Z,2.60
2022-12-06T06:36:06.891Z,3.50
2022-12-06T06:38:55.524Z,3.33
2022-12-06T06:42:02.172Z,2.93
2022-12-06T06:44:53.035Z,3.13
2022-12-06T06:47:43.202Z,4.67
2022-12-06T06:50:31.798Z,2.87
2022-12-06T06:53:25.045Z,3.13
2022-12-06T06:56:20.454Z,3.30
2022-12-06T06:59:10.236Z,4.43
2022-12-06T07:01:58.882Z,4.43
2022-12-06T07:04:49.824Z,3.70
2022-12-06T07:07:38.418Z,5.50
2022-12-06T07:10:31.430Z,5.47
2022-12-06T07:13:24.551Z,5.57
2022-12-06T07:16:17.587Z,5.50
2022-12-06T07:19:10.173Z,5.20
2022-12-06T07:22:03.228Z,5.00
2022-12-06T07:24:52.607Z,4.90
2022-12-06T07:27:44.739Z,4.80
2022-12-06T07:30:33.440Z,6.87
2022-12-06T07:33:25.214Z,6.73
2022-12-06T07:36:17.472Z,5.73
2022-12-06T07:39:14.510Z,7.27
2022-12-06T07:42:30.347Z,5.43
2022-12-06T07:45:19.008Z,5.97
2022-12-06T07:48:11.187Z,7.93
2022-12-06T07:51:04.729Z,5.53
2022-12-06T07:53:54.411Z,6.23
2022-12-06T07:56:45.832Z,4.97
2022-12-06T07:59:36.980Z,5.57
2022-12-06T08:02:28.135Z,5.60
2022-12-06T08:05:19.840Z,6.60
2022-12-06T08:08:12.722Z,6.63
2022-12-06T08:11:02.535Z,8.17
2022-12-06T08:13:52.783Z,6.03
2022-12-06T08:16:47.301Z,5.77
2022-12-06T08:19:38.205Z,6.33
2022-12-06T08:22:29.155Z,6.33
2022-12-06T08:25:19.872Z,6.30
2022-12-06T08:28:10.555Z,5.17
2022-12-06T08:31:06.864Z,5.60
2022-12-06T08:33:55.647Z,8.93
2022-12-06T08:36:44.450Z,5.87
2022-12-06T08:39:35.818Z,6.93
2022-12-06T08:42:25.460Z,6.33
2022-12-06T08:45:16.372Z,7.70
2022-12-06T08:48:08.625Z,7.47
2022-12-06T08:50:57.219Z,9.27
2022-12-06T08:53:47.724Z,7.73
2022-12-06T08:56:37.801Z,7.50
2022-12-06T08:59:26.511Z,7.40
2022-12-06T09:02:15.185Z,7.23
2022-12-06T09:05:07.205Z,8.83
2022-12-06T09:07:57.299Z,6.13
2022-12-06T09:10:46.253Z,8.80
2022-12-06T09:13:36.429Z,9.43
2022-12-06T09:16:28.489Z,8.27
2022-12-06T09:19:17.643Z,7.87
2022-12-06T09:22:07.578Z,8.27
2022-12-06T09:25:02.948Z,7.80
2022-12-06T09:27:51.563Z,9.60
2022-12-06T09:30:40.235Z,8.97
2022-12-06T09:33:28.821Z,8.17
2022-12-06T09:36:21.213Z,7.83
2022-12-06T09:39:16.093Z,10.90
2022-12-06T09:42:19.537Z,9.20
2022-12-06T09:45:22.966Z,9.30
2022-12-06T09:48:23.472Z,8.53
2022-12-06T09:51:18.635Z,8.43
2022-12-06T09:54:26.249Z,8.23
2022-12-06T09:57:18.724Z,8.90
2022-12-06T10:00:12.641Z,8.93
2022-12-06T10:03:17.967Z,10.57
2022-12-06T10:06:14.135Z,10.97
2022-12-06T10:09:07.914Z,9.90
2022-12-06T10:12:07.177Z,12.47
2022-12-06T10:15:01.732Z,10.17
2022-12-06T10:18:06.830Z,9.83
2022-12-06T10:21:03.102Z,8.37
2022-12-06T10:24:01.689Z,10.60
2022-12-06T10:26:54.141Z,9.97
2022-12-06T10:29:55.728Z,8.97
2022-12-06T10:33:05.268Z,10.50
2022-12-06T10:36:00.731Z,10.33
2022-12-06T10:38:53.008Z,9.77
2022-12-06T10:41:46.638Z,10.30
2022-12-06T10:44:38.617Z,10.40
2022-12-06T10:47:34.530Z,12.07
2022-12-06T10:50:27.699Z,13.20
2022-12-06T10:53:20.415Z,12.40
2022-12-06T10:56:17.453Z,15.00
2022-12-06T10:59:14.241Z,12.27
2022-12-06T11:02:17.540Z,12.70
2022-12-06T11:05:17.094Z,13.27
2022-12-06T11:08:11.877Z,12.93
2022-12-06T11:11:06.080Z,12.13
2022-12-06T11:14:02.625Z,12.37
2022-12-06T11:16:55.812Z,12.17
2022-12-06T11:19:49.779Z,10.60
2022-12-06T11:22:42.875Z,9.67
2022-12-06T11:25:34.659Z,9.33
2022-12-06T11:28:31.004Z,10.10
2022-12-06T11:31:21.849Z,11.60
2022-12-06T11:34:18.334Z,9.57
2022-12-06T11:37:08.997Z,9.83
2022-12-06T11:40:06.112Z,12.43
2022-12-06T11:42:56.430Z,12.50
2022-12-06T11:45:50.196Z,10.47
2022-12-06T11:48:43.686Z,12.70
2022-12-06T11:51:32.316Z,11.90
2022-12-06T11:54:28.004Z,10.97
2022-12-06T11:57:22.821Z,11.20
2022-12-06T12:00:21.423Z,12.00
2022-12-06T12:03:31.189Z,11.23
2022-12-06T12:06:23.805Z,12.67
2022-12-06T12:09:19.538Z,11.50
2022-12-06T12:12:21.359Z,13.70
2022-12-06T12:15:17.723Z,12.43
2022-12-06T12:18:07.470Z,12.80
2022-12-06T12:20:56.827Z,13.30
2022-12-06T12:23:47.673Z,11.83
2022-12-06T12:26:45.392Z,9.57
2022-12-06T12:29:38.383Z,9.70
2022-12-06T12:32:35.929Z,10.77
2022-12-06T12:35:30.726Z,8.13
2022-12-06T12:38:25.302Z,9.07
2022-12-06T12:41:29.066Z,10.50
2022-12-06T12:44:41.101Z,8.47
2022-12-06T12:47:31.174Z,9.67
2022-12-06T12:50:23.856Z,9.40
2022-12-06T12:53:32.681Z,10.87
2022-12-06T12:56:26.232Z,8.40
2022-12-06T12:59:18.861Z,9.33
2022-12-06T13:02:14.550Z,7.83
2022-12-06T13:05:32.031Z,7.53
2022-12-06T13:08:24.489Z,9.23
2022-12-06T13:11:16.047Z,6.17
2022-12-06T13:14:04.872Z,7.37
2022-12-06T13:16:56.090Z,7.07
2022-12-06T13:19:53.453Z,6.43
2022-12-06T13:22:45.537Z,7.30
2022-12-06T13:25:36.769Z,5.23
2022-12-06T13:28:28.945Z,5.50
2022-12-06T13:31:22.625Z,6.30
2022-12-06T13:34:18.612Z,5.47
2022-12-06T13:37:23.959Z,4.77
2022-12-06T13:40:30.313Z,6.60
2022-12-06T13:43:39.965Z,6.80
2022-12-06T13:46:38.752Z,6.80
2022-12-06T13:49:48.977Z,6.30
2022-12-06T13:52:57.539Z,7.90
2022-12-06T13:55:58.929Z,7.30
2022-12-06T13:58:54.178Z,6.47
2022-12-06T14:01:44.879Z,6.67
2022-12-06T14:07:33.658Z,7.70
2022-12-06T14:10:22.477Z,7.10
2022-12-06T14:13:19.835Z,7.40
2022-12-06T14:16:12.572Z,5.87
2022-12-06T14:19:09.486Z,7.57
2022-12-06T14:22:02.301Z,7.57
2022-12-06T14:25:01.886Z,6.70
2022-12-06T14:28:00.852Z,6.97
2022-12-06T14:30:51.491Z,6.93
2022-12-06T14:33:40.931Z,8.50
2022-12-06T14:36:34.421Z,8.17
2022-12-06T14:39:31.142Z,7.13
2022-12-06T14:42:38.307Z,6.80
2022-12-06T14:45:29.894Z,6.97
2022-12-06T14:48:18.805Z,6.00
2022-12-06T14:51:09.901Z,7.83
2022-12-06T14:54:17.453Z,6.30
2022-12-06T14:57:06.317Z,8.23
2022-12-06T15:00:25.303Z,7.60
2022-12-06T15:03:30.695Z,6.40
2022-12-06T15:06:23.350Z,5.53
2022-12-06T15:09:19.936Z,6.77
2022-12-06T15:12:39.819Z,5.23
2022-12-06T15:15:35.347Z,5.60
2022-12-06T15:18:24.895Z,6.60
2022-12-06T15:21:15.475Z,5.10
2022-12-06T15:24:04.030Z,6.77
2022-12-06T15:26:57.133Z,5.97
2022-12-06T15:29:45.799Z,7.30
2022-12-06T15:32:34.759Z,5.47
2022-12-06T15:35:23.327Z,5.67
2022-12-06T15:38:12.375Z,6.40
2022-12-06T15:41:00.918Z,5.33
2022-12-06T15:43:54.819Z,7.87
2022-12-06T15:46:53.207Z,5.73
2022-12-06T15:49:44.221Z,7.00
2022-12-06T15:52:34.971Z,6.00
2022-12-06T15:55:25.692Z,6.37
2022-12-06T15:58:14.218Z,7.37
2022-12-06T16:01:04.173Z,7.00
2022-12-06T16:03:57.295Z,8.90
2022-12-06T16:06:56.549Z,8.13
2022-12-06T16:09:47.423Z,8.30
2022-12-06T16:12:56.020Z,8.07
2022-12-06T16:15:46.789Z,6.80
2022-12-06T16:18:38.942Z,7.93
2022-12-06T16:21:32.363Z,6.73
2022-12-06T16:24:23.033Z,6.63
2022-12-06T16:27:12.829Z,6.83
2022-12-06T16:30:02.602Z,6.70
2022-12-06T16:32:51.254Z,7.17
2022-12-06T16:35:41.252Z,7.33
2022-12-06T16:38:38.166Z,8.23
2022-12-06T16:41:30.987Z,6.30
2022-12-06T16:44:21.618Z,7.90
2022-12-06T16:47:11.469Z,6.40
2022-12-06T16:50:05.330Z,7.50
2022-12-06T16:52:55.859Z,5.50
2022-12-06T16:55:49.397Z,7.43
2022-12-06T16:58:40.531Z,6.33
2022-12-06T17:01:31.806Z,6.33
2022-12-06T17:04:23.382Z,8.20
2022-12-06T17:07:11.935Z,5.87
2022-12-06T17:10:02.131Z,7.67
2022-12-06T17:12:51.111Z,6.40
2022-12-06T17:15:42.715Z,6.17
2022-12-06T17:18:31.332Z,6.07
2022-12-06T17:21:21.035Z,6.67
2022-12-06T17:24:17.510Z,5.83
2022-12-06T17:27:09.472Z,5.77
2022-12-06T17:30:00.564Z,7.33
2022-12-06T17:32:53.855Z,5.70
2022-12-06T17:35:46.011Z,6.33
2022-12-06T17:38:34.577Z,6.70
2022-12-06T17:41:41.590Z,6.37
2022-12-06T17:44:39.646Z,6.53
2022-12-06T17:47:29.443Z,9.27
2022-12-06T17:50:19.905Z,7.20
2022-12-06T17:53:10.795Z,6.30
2022-12-06T17:56:27.220Z,6.20
2022-12-06T17:59:16.733Z,6.40
2022-12-06T18:02:15.469Z,7.83
2022-12-06T18:05:06.733Z,8.13
2022-12-06T18:07:59.015Z,6.53
2022-12-06T18:10:49.461Z,7.07
2022-12-06T18:13:42.478Z,8.07
2022-12-06T18:16:36.957Z,8.43
2022-12-06T18:19:29.347Z,8.90
2022-12-06T18:22:21.304Z,9.40
2022-12-06T18:25:12.916Z,8.37
2022-12-06T18:28:02.728Z,8.40
2022-12-06T18:31:00.452Z,7.57
2022-12-06T18:33:54.262Z,7.27
2022-12-06T18:36:48.088Z,9.10
2022-12-06T18:39:39.451Z,8.83
2022-12-06T18:42:33.431Z,7.70
2022-12-06T18:45:21.974Z,8.90
2022-12-06T18:48:17.723Z,8.20
2022-12-06T18:51:10.272Z,7.73
2022-12-06T18:54:00.720Z,8.23
2022-12-06T18:56:51.099Z,9.13
2022-12-06T18:59:39.695Z,10.73
2022-12-06T19:02:28.313Z,10.40
2022-12-06T19:06:00.772Z,8.27
2022-12-06T19:08:40.247Z,11.33
2022-12-06T19:11:33.961Z,12.33
2022-12-06T19:14:25.107Z,8.30
2022-12-06T19:17:16.545Z,9.80
2022-12-06T19:20:05.291Z,10.20
2022-12-06T19:22:54.005Z,11.57
2022-12-06T19:25:50.004Z,9.50
2022-12-06T19:28:40.840Z,10.70
2022-12-06T19:31:33.346Z,9.37
2022-12-06T19:34:26.335Z,11.60
2022-12-06T19:37:17.445Z,11.37
2022-12-06T19:40:08.091Z,11.33
2022-12-06T19:43:25.998Z,11.30
2022-12-06T19:46:29.758Z,11.07
2022-12-06T19:49:20.992Z,10.57
2022-12-06T19:52:11.566Z,10.53
2022-12-06T19:55:00.171Z,11.87
2022-12-06T19:57:51.964Z,10.03
2022-12-06T20:00:40.526Z,10.30
2022-12-06T20:03:30.465Z,8.80
2022-12-06T20:06:25.808Z,9.90
2022-12-06T20:09:22.118Z,8.83
2022-12-06T20:12:10.679Z,10.00
2022-12-06T20:15:01.874Z,9.70
2022-12-06T20:17:50.481Z,8.30
2022-12-06T20:20:42.276Z,9.83
2022-12-06T20:23:33.630Z,10.33
2022-12-06T20:26:25.228Z,8.60
2022-12-06T20:29:13.907Z,8.30
2022-12-06T20:32:04.506Z,9.30
2022-12-06T20:34:58.005Z,7.50
2022-12-06T20:37:51.331Z,7.90
2022-12-06T20:40:39.894Z,8.33
2022-12-06T20:43:37.917Z,8.30
2022-12-06T20:46:32.284Z,7.50
2022-12-06T20:49:25.629Z,8.27
2022-12-06T20:52:16.789Z,6.80
2022-12-06T20:55:09.040Z,7.53
2022-12-06T20:57:57.767Z,7.20
2022-12-06T21:00:46.335Z,7.13
2022-12-06T21:03:37.200Z,8.07
2022-12-06T21:06:29.737Z,6.93
2022-12-06T21:09:23.200Z,7.90
2022-12-06T21:12:17.957Z,8.00
2022-12-06T21:15:06.913Z,9.07
2022-12-06T21:18:05.433Z,7.80
2022-12-06T21:20:57.590Z,8.57
2022-12-06T21:23:51.670Z,8.00
2022-12-06T21:26:40.313Z,8.50
2022-12-06T21:29:31.307Z,8.50
2022-12-06T21:32:20.884Z,10.87
2022-12-06T21:35:14.831Z,8.13
2022-12-06T21:38:05.393Z,7.97
2022-12-06T21:41:00.206Z,9.77
2022-12-06T21:43:50.397Z,9.90
2022-12-06T21:46:41.574Z,8.10
2022-12-06T21:49:30.145Z,8.53
2022-12-06T21:52:22.916Z,8.83
2022-12-06T21:55:11.705Z,10.43
2022-12-06T21:58:05.403Z,9.60
2022-12-06T22:00:53.999Z,10.00
2022-12-06T22:03:47.159Z,9.00
2022-12-06T22:06:44.430Z,8.30
2022-12-06T22:09:34.450Z,10.23
2022-12-06T22:12:25.161Z,11.80
2022-12-06T22:15:16.058Z,10.80
2022-12-06T22:18:04.687Z,11.33
2022-12-06T22:21:05.185Z,13.90
2022-12-06T22:23:59.557Z,13.63
2022-12-06T22:26:48.125Z,11.07
2022-12-06T22:29:38.434Z,11.40
2022-12-06T22:32:32.059Z,13.10
2022-12-06T22:35:20.651Z,10.70
2022-12-06T22:38:11.694Z,9.67
2022-12-06T22:41:02.344Z,11.50
2022-12-06T22:43:53.386Z,12.33
2022-12-06T22:46:42.000Z,11.50
2022-12-06T22:49:32.577Z,12.63
2022-12-06T22:52:21.200Z,13.50
2022-12-06T22:55:16.496Z,12.97
2022-12-06T22:58:12.336Z,13.43
2022-12-06T23:01:15.628Z,12.33
2022-12-06T23:04:07.847Z,12.03
2022-12-06T23:06:57.800Z,17.17
2022-12-06T23:09:48.564Z,18.37
2022-12-06T23:12:40.308Z,15.60
2022-12-06T23:15:35.674Z,14.00
2022-12-06T23:18:24.251Z,17.30
2022-12-06T23:21:14.180Z,13.23
2022-12-06T23:24:18.461Z,14.10
2022-12-06T23:27:09.566Z,12.67
2022-12-06T23:30:02.923Z,17.30
2022-12-06T23:32:51.660Z,14.10
2022-12-06T23:35:40.181Z,14.73
2022-12-06T23:38:30.657Z,13.27
2022-12-06T23:41:24.250Z,12.90
2022-12-06T23:44:14.711Z,13.00
2022-12-06T23:47:06.488Z,13.60
2022-12-06T23:50:00.380Z,13.53
2022-12-06T23:52:55.236Z,13.73
2022-12-06T23:55:51.127Z,14.50
2022-12-06T23:58:42.992Z,14.33
